Time;durP1;ratioP1;P1;durP2;ratioP2;P2;SDS_P1;SDS_P2;PMS_P1;PMS_P2;Temp;Humidity;BMP_temperature;BMP_pressure;BME280_temperature;BME280_humidity;BME280_pressure;Samples;Min_cycle;Max_cycle;Signal;HPM_P1;HPM_P2
2022/06/08 00:01:52;;;;;;;2.47;1.10;;;;;;;23.17;45.26;100768.59;4995165;28;20047;-80
2022/06/08 00:04:22;;;;;;;2.33;1.20;;;;;;;23.13;44.56;100764.25;5006274;28;20057;-82
2022/06/08 00:06:53;;;;;;;2.58;1.40;;;;;;;23.04;46.49;100777.66;4996627;28;20039;-81
2022/06/08 00:09:22;;;;;;;1.43;1.30;;;;;;;22.95;47.00;100773.41;4990679;28;20058;-82
2022/06/08 00:11:51;;;;;;;1.67;1.10;;;;;;;22.95;47.18;100769.03;4989337;28;20441;-80
2022/06/08 00:14:20;;;;;;;1.92;1.45;;;;;;;22.94;47.05;100774.34;4990338;28;20065;-81
2022/06/08 00:16:48;;;;;;;3.42;1.38;;;;;;;22.91;47.09;100777.03;4975797;28;20047;-80
2022/06/08 00:19:17;;;;;;;3.40;1.48;;;;;;;22.78;48.01;100760.59;4987520;28;20196;-79
2022/06/08 00:21:46;;;;;;;3.03;1.38;;;;;;;22.76;48.55;100747.44;4983235;28;20102;-81
2022/06/08 00:24:18;;;;;;;3.22;1.55;;;;;;;22.79;47.76;100752.66;4992737;28;20043;-82
2022/06/08 00:26:46;;;;;;;2.85;1.08;;;;;;;22.84;48.78;100765.75;4975344;28;20046;-81
2022/06/08 00:29:15;;;;;;;1.95;1.40;;;;;;;22.81;48.34;100765.78;4986187;28;20220;-82
2022/06/08 00:31:44;;;;;;;1.38;1.00;;;;;;;22.77;48.38;100743.91;4978541;28;20510;-83
2022/06/08 00:34:13;;;;;;;2.38;1.08;;;;;;;22.74;47.77;100733.41;4989037;28;20094;-82
2022/06/08 00:36:41;;;;;;;1.20;0.90;;;;;;;22.72;47.08;100729.94;4987952;28;20052;-80
2022/06/08 00:39:10;;;;;;;1.67;1.17;;;;;;;22.68;46.60;100753.78;4981308;28;20078;-82
2022/06/08 00:41:48;;;;;;;1.23;1.00;;;;;;;22.57;49.90;100773.31;4982971;28;20046;-81
2022/06/08 00:44:21;;;;;;;1.40;1.00;;;;;;;22.50;48.01;100755.03;4984816;28;20117;-79
2022/06/08 00:46:52;;;;;;;1.50;0.90;;;;;;;22.45;49.05;100746.31;4979551;28;20126;-80
2022/06/08 00:49:28;;;;;;;2.13;1.08;;;;;;;22.46;48.64;100726.97;4991480;28;20054;-81
2022/06/08 00:51:59;;;;;;;0.93;0.80;;;;;;;22.51;48.88;100725.97;4982305;28;20047;-83
2022/06/08 00:54:32;;;;;;;3.08;1.02;;;;;;;22.54;49.31;100735.56;4996544;28;20053;-85
2022/06/08 00:57:10;;;;;;;3.10;1.17;;;;;;;22.49;49.00;100722.50;4977899;28;20043;-86
2022/06/08 00:59:43;;;;;;;1.48;0.93;;;;;;;22.51;48.63;100725.97;4990843;28;20081;-85
2022/06/08 01:02:12;;;;;;;1.70;1.00;;;;;;;22.52;50.14;100727.72;4993612;28;20042;-84
2022/06/08 01:04:41;;;;;;;2.88;1.20;;;;;;;22.47;50.51;100734.88;4997551;28;20042;-87
2022/06/08 01:07:16;;;;;;;3.17;1.25;;;;;;;22.40;51.17;100737.63;5003942;28;20037;-83
2022/06/08 01:09:45;;;;;;;3.35;1.20;;;;;;;22.36;51.12;100735.06;4995819;28;20063;-86
2022/06/08 01:12:20;;;;;;;1.48;1.20;;;;;;;22.33;51.97;100736.88;4999814;28;20721;-81
2022/06/08 01:14:50;;;;;;;2.55;1.10;;;;;;;22.20;52.05;100740.63;4994559;28;20051;-81
2022/06/08 01:17:21;;;;;;;2.47;1.25;;;;;;;22.09;52.53;100743.47;4987036;28;20053;-82
2022/06/08 01:19:51;;;;;;;1.23;1.00;;;;;;;22.04;53.01;100756.72;5001878;28;20149;-87
2022/06/08 01:22:21;;;;;;;4.13;1.20;;;;;;;21.89;52.98;100754.34;4988394;28;20061;-82
2022/06/08 01:24:53;;;;;;;4.82;1.33;;;;;;;21.95;52.46;100752.47;5003841;28;20038;-81
2022/06/08 01:27:33;;;;;;;4.72;1.23;;;;;;;21.89;53.28;100763.09;5008055;28;20130;-81
2022/06/08 01:30:21;;;;;;;1.83;1.20;;;;;;;21.87;53.60;100775.44;5001422;28;20042;-82
2022/06/08 01:33:34;;;;;;;2.85;1.27;;;;;;;21.83;53.70;100781.69;4992086;28;20046;-84
2022/06/08 01:36:26;;;;;;;4.00;1.75;;;;;;;21.88;53.41;100792.13;4968005;28;20080;-83
2022/06/08 01:39:03;;;;;;;3.92;1.70;;;;;;;21.89;54.32;100793.84;4981971;28;20556;-82
2022/06/08 01:42:04;;;;;;;2.90;1.33;;;;;;;21.91;54.03;100795.56;4987250;28;20084;-81
2022/06/08 01:45:28;;;;;;;5.72;1.67;;;;;;;21.96;54.89;100780.53;4989863;28;20058;-82
2022/06/08 01:47:44;;;;;;;4.53;1.60;;;;;;;22.01;54.61;100771.69;4989959;28;20137;-82
2022/06/08 01:50:22;;;;;;;8.88;1.20;;;;;;;22.01;54.56;100759.38;4979500;28;20042;-81
2022/06/08 01:53:01;;;;;;;1.77;1.20;;;;;;;22.03;54.38;100770.78;4980993;28;20047;-82
2022/06/08 01:55:41;;;;;;;2.25;1.05;;;;;;;22.04;53.69;100777.81;4991943;28;20058;-82
2022/06/08 01:58:18;;;;;;;3.30;1.02;;;;;;;22.01;54.62;100782.25;5001159;28;20053;-82
2022/06/08 02:00:51;;;;;;;3.05;1.10;;;;;;;21.94;55.25;100782.38;4992219;28;20053;-81
2022/06/08 02:03:25;;;;;;;1.42;0.93;;;;;;;21.88;54.85;100782.47;4983379;28;20054;-83
2022/06/08 02:06:03;;;;;;;2.95;1.00;;;;;;;21.83;55.57;100783.41;4977309;28;20054;-82
2022/06/08 02:08:40;;;;;;;1.58;1.10;;;;;;;21.77;55.31;100792.31;4980411;28;20046;-82
2022/06/08 02:11:19;;;;;;;2.42;1.42;;;;;;;21.68;55.17;100780.16;4989749;28;20046;-80
2022/06/08 02:13:53;;;;;;;3.50;1.00;;;;;;;21.65;55.96;100780.19;4990709;28;20046;-81
2022/06/08 02:16:26;;;;;;;1.92;1.10;;;;;;;21.63;55.99;100792.53;4992434;28;20057;-79
2022/06/08 02:19:05;;;;;;;2.10;0.80;;;;;;;21.64;55.66;100783.72;4984096;28;20484;-82
2022/06/08 02:21:41;;;;;;;1.60;1.08;;;;;;;21.64;55.09;100777.59;4983776;28;20051;-80
2022/06/08 02:24:17;;;;;;;1.25;0.90;;;;;;;21.65;55.08;100776.72;4993312;28;20528;-81
2022/06/08 02:26:53;;;;;;;1.10;0.82;;;;;;;21.66;55.29;100770.53;4988243;28;20086;-80
2022/06/08 02:29:26;;;;;;;1.20;0.90;;;;;;;21.60;55.05;100783.78;4986644;28;20053;-79
2022/06/08 02:32:00;;;;;;;1.20;0.90;;;;;;;21.56;55.52;100780.34;4985685;28;20042;-81
2022/06/08 02:34:32;;;;;;;5.13;1.10;;;;;;;21.54;55.41;100793.53;4975718;28;20059;-82
2022/06/08 02:37:08;;;;;;;1.45;0.82;;;;;;;21.54;55.55;100793.53;4985171;28;20133;-81
2022/06/08 02:39:43;;;;;;;1.73;0.93;;;;;;;21.56;55.55;100795.28;4980248;28;20047;-81
2022/06/08 02:42:18;;;;;;;1.65;0.98;;;;;;;21.50;56.26;100802.34;4975515;28;20039;-81
2022/06/08 02:44:58;;;;;;;1.50;1.00;;;;;;;21.49;56.20;100799.78;4989869;28;20268;-82
2022/06/08 02:47:31;;;;;;;2.08;1.10;;;;;;;21.48;56.80;100804.13;4982432;28;20059;-80
2022/06/08 02:50:01;;;;;;;2.97;1.05;;;;;;;21.43;57.31;100795.44;4988577;28;20069;-79
2022/06/08 02:52:31;;;;;;;1.67;1.08;;;;;;;21.38;56.71;100802.50;4979555;28;20061;-81
2022/06/08 02:54:59;;;;;;;1.52;1.10;;;;;;;21.34;57.66;100812.19;4984738;28;20046;-82
2022/06/08 02:57:40;;;;;;;2.45;1.08;;;;;;;21.28;58.04;100808.78;4985513;28;20201;-80
2022/06/08 03:00:14;;;;;;;2.45;1.20;;;;;;;21.22;59.20;100814.16;4995881;28;20046;-89
2022/06/08 03:02:48;;;;;;;1.70;1.10;;;;;;;21.12;60.01;100819.53;4993777;28;20053;-88
2022/06/08 03:05:21;;;;;;;3.35;1.20;;;;;;;21.00;59.71;100811.78;5005085;28;20082;-86
2022/06/08 03:07:53;;;;;;;1.15;1.00;;;;;;;20.98;59.32;100815.31;5002805;28;20066;-86
2022/06/08 03:10:24;;;;;;;1.73;1.20;;;;;;;20.97;59.48;100822.34;5002797;28;20049;-89
2022/06/08 03:13:02;;;;;;;3.22;1.08;;;;;;;20.95;59.73;100824.13;4993840;28;20046;-88
2022/06/08 03:15:31;;;;;;;2.03;1.15;;;;;;;20.89;60.42;100832.09;4989722;28;20646;-85
2022/06/08 03:17:59;;;;;;;1.10;0.90;;;;;;;20.88;59.98;100820.69;4999627;28;20511;-87
2022/06/08 03:20:30;;;;;;;3.47;1.00;;;;;;;20.88;59.67;100831.22;4992894;28;20082;-80
2022/06/08 03:22:58;;;;;;;1.95;0.88;;;;;;;20.85;59.75;100817.25;4996086;28;20046;-84
2022/06/08 03:25:27;;;;;;;1.30;0.95;;;;;;;20.75;60.21;100812.97;4980280;28;20497;-85
2022/06/08 03:27:57;;;;;;;4.22;1.10;;;;;;;20.79;60.35;100822.56;4982321;28;20054;-85
2022/06/08 03:30:26;;;;;;;1.60;1.08;;;;;;;20.78;60.05;100816.44;4976117;28;20505;-85
2022/06/08 03:32:55;;;;;;;2.50;0.98;;;;;;;20.79;60.24;100819.94;4980631;28;20043;-85
2022/06/08 03:35:23;;;;;;;1.65;1.08;;;;;;;20.81;60.40;100820.81;4991209;28;20472;-81
2022/06/08 03:37:52;;;;;;;2.40;0.93;;;;;;;20.82;60.48;100812.00;4982715;28;20050;-81
2022/06/08 03:40:20;;;;;;;4.05;1.33;;;;;;;20.81;59.92;100808.50;4990839;28;20050;-82
2022/06/08 03:42:49;;;;;;;2.72;1.10;;;;;;;20.79;60.01;100810.28;4991696;28;20497;-83
2022/06/08 03:45:19;;;;;;;2.17;1.20;;;;;;;20.81;59.65;100810.28;4987601;28;20490;-83
2022/06/08 03:47:50;;;;;;;3.22;1.20;;;;;;;20.81;60.00;100815.53;4982007;28;20512;-83
2022/06/08 03:50:22;;;;;;;1.25;0.80;;;;;;;20.80;59.73;100819.03;4992110;28;20057;-84
2022/06/08 03:52:57;;;;;;;2.13;0.90;;;;;;;20.77;57.63;100817.31;4985299;28;20069;-82
2022/06/08 03:55:27;;;;;;;2.42;1.08;;;;;;;20.73;58.10;100820.00;4983117;28;20047;-83
2022/06/08 03:57:56;;;;;;;3.58;1.15;;;;;;;20.66;57.80;100819.19;4993685;28;20412;-79
2022/06/08 04:00:27;;;;;;;3.85;1.27;;;;;;;20.56;57.00;100810.53;4979296;28;20050;-81
2022/06/08 04:02:56;;;;;;;1.40;0.80;;;;;;;20.52;56.60;100803.53;4980495;28;20073;-82
2022/06/08 04:05:25;;;;;;;1.40;0.80;;;;;;;20.45;61.08;100809.75;4977933;28;20066;-86
2022/06/08 04:07:53;;;;;;;2.35;1.25;;;;;;;20.35;59.44;100822.13;4982220;28;20043;-85
2022/06/08 04:10:22;;;;;;;4.10;1.20;;;;;;;20.27;59.54;100832.72;4987794;28;20492;-84
2022/06/08 04:12:51;;;;;;;1.83;0.90;;;;;;;20.25;59.32;100831.84;4974710;28;20057;-82
2022/06/08 04:18:03;;;;;;;2.80;1.02;;;;;;;20.22;59.71;100831.00;4988253;28;20100;-84
2022/06/08 04:20:32;;;;;;;1.58;1.00;;;;;;;20.20;59.08;100844.19;5003546;28;20039;-86
2022/06/08 04:23:00;;;;;;;1.75;0.90;;;;;;;20.17;58.20;100845.94;5006132;28;20507;-84
2022/06/08 04:25:30;;;;;;;2.25;1.00;;;;;;;20.15;58.23;100842.44;4981043;28;20048;-83
2022/06/08 04:27:59;;;;;;;2.58;1.27;;;;;;;20.12;58.51;100851.25;4982883;28;20061;-85
2022/06/08 04:30:28;;;;;;;3.35;0.95;;;;;;;20.08;58.56;100855.63;4992719;28;20074;-85
2022/06/08 04:32:57;;;;;;;1.65;0.80;;;;;;;20.04;58.74;100861.81;4994426;28;20059;-85
2022/06/08 04:35:28;;;;;;;2.42;1.05;;;;;;;20.01;59.23;100871.47;4998560;28;20054;-88
2022/06/08 04:37:57;;;;;;;3.20;1.30;;;;;;;19.99;58.25;100870.59;4982202;28;20053;-86
2022/06/08 04:40:26;;;;;;;4.03;1.58;;;;;;;19.95;57.80;100863.63;4998793;28;20054;-86
2022/06/08 04:42:55;;;;;;;2.13;0.95;;;;;;;19.91;57.38;100867.19;4994276;28;20055;-86
2022/06/08 04:45:24;;;;;;;2.10;1.13;;;;;;;19.88;57.03;100868.03;4986951;28;20046;-86
2022/06/08 04:47:52;;;;;;;1.30;0.80;;;;;;;19.83;56.58;100860.19;5003221;28;20042;-85
2022/06/08 04:50:21;;;;;;;3.88;1.02;;;;;;;19.79;56.44;100863.75;5000076;28;20050;-87
2022/06/08 04:52:52;;;;;;;2.00;1.05;;;;;;;19.76;60.56;100869.00;4998783;28;20046;-85
2022/06/08 04:55:22;;;;;;;2.55;1.15;;;;;;;19.70;58.05;100858.56;4996052;28;20517;-86
2022/06/08 04:57:51;;;;;;;2.10;1.10;;;;;;;19.64;58.41;100863.81;4989038;28;20047;-86
2022/06/08 05:00:21;;;;;;;1.95;0.93;;;;;;;19.58;58.64;100858.59;4988372;28;20054;-82
2022/06/08 05:02:51;;;;;;;2.35;1.15;;;;;;;19.51;61.80;100864.75;4981990;28;20149;-81
2022/06/08 05:05:24;;;;;;;2.13;1.25;;;;;;;19.44;60.12;100864.78;4991751;28;20050;-81
2022/06/08 05:07:55;;;;;;;2.03;1.20;;;;;;;19.39;59.86;100858.69;4977330;28;20054;-81
2022/06/08 05:10:25;;;;;;;1.35;1.10;;;;;;;19.36;59.45;100858.72;4990926;28;20046;-82
2022/06/08 05:12:53;;;;;;;2.08;1.00;;;;;;;19.30;59.80;100863.13;4987976;28;20091;-81
2022/06/08 05:15:26;;;;;;;2.55;0.80;;;;;;;19.25;59.50;100860.50;4990942;28;20042;-83
2022/06/08 05:17:54;;;;;;;1.95;0.88;;;;;;;19.25;59.71;100871.00;4989604;28;20444;-80
2022/06/08 05:20:23;;;;;;;2.28;1.20;;;;;;;19.21;59.75;100871.88;4986823;28;20073;-81
2022/06/08 05:22:54;;;;;;;2.50;1.02;;;;;;;19.21;59.56;100874.50;4989331;28;20521;-82
2022/06/08 05:25:26;;;;;;;1.73;0.90;;;;;;;19.17;59.52;100872.78;4992681;28;20050;-82
2022/06/08 05:28:02;;;;;;;2.20;1.00;;;;;;;19.12;59.25;100866.69;4994981;28;20067;-82
2022/06/08 05:30:32;;;;;;;2.95;1.10;;;;;;;19.05;60.84;100874.56;4979507;28;20519;-83
2022/06/08 05:33:01;;;;;;;1.63;0.80;;;;;;;19.00;61.36;100870.22;4986347;28;20129;-81
2022/06/08 05:35:30;;;;;;;2.35;1.15;;;;;;;18.91;61.09;100875.50;4977042;28;20051;-82
2022/06/08 05:38:01;;;;;;;4.03;1.20;;;;;;;18.87;61.46;100871.13;4981816;28;20047;-81
2022/06/08 05:40:32;;;;;;;2.28;0.95;;;;;;;18.86;61.22;100875.50;4991349;28;20049;-81
2022/06/08 05:43:02;;;;;;;1.58;1.08;;;;;;;18.82;61.58;100876.38;4991230;28;20086;-81
2022/06/08 05:45:32;;;;;;;2.80;1.20;;;;;;;18.75;60.61;100879.88;4993330;28;20064;-82
2022/06/08 05:48:01;;;;;;;4.05;1.38;;;;;;;18.67;60.50;100884.25;4997348;28;20515;-81
2022/06/08 05:50:30;;;;;;;1.95;1.30;;;;;;;18.61;59.47;100893.88;4987629;28;20493;-81
2022/06/08 05:53:01;;;;;;;3.05;1.13;;;;;;;18.57;59.54;100894.75;4980837;28;20106;-83
2022/06/08 05:55:30;;;;;;;1.98;1.10;;;;;;;18.53;58.22;100895.66;4985516;28;20488;-81
2022/06/08 05:57:58;;;;;;;2.10;1.27;;;;;;;18.51;57.96;100897.38;4991153;28;20053;-80
2022/06/08 06:00:30;;;;;;;1.60;0.80;;;;;;;18.43;57.09;100894.75;4985667;28;20053;-82
2022/06/08 06:02:59;;;;;;;3.50;1.10;;;;;;;18.40;56.62;100893.91;4990189;28;20051;-81
2022/06/08 06:05:32;;;;;;;4.55;0.98;;;;;;;18.38;57.10;100895.66;4987473;28;20515;-82
2022/06/08 06:08:02;;;;;;;1.90;1.00;;;;;;;18.34;56.89;100904.38;4982381;28;20080;-81
2022/06/08 06:10:33;;;;;;;1.90;1.00;;;;;;;18.31;56.87;100893.91;5006177;28;20050;-81
2022/06/08 06:13:02;;;;;;;4.57;1.30;;;;;;;18.27;56.79;100902.63;4981358;28;20038;-81
2022/06/08 06:15:31;;;;;;;1.42;0.90;;;;;;;18.25;56.86;100907.00;4981001;28;20102;-81
2022/06/08 06:17:59;;;;;;;2.90;0.98;;;;;;;18.24;56.75;100913.97;4974583;28;20130;-81
2022/06/08 06:20:28;;;;;;;2.55;1.20;;;;;;;18.25;56.42;100912.22;4985045;28;20058;-82
2022/06/08 06:22:56;;;;;;;1.73;1.00;;;;;;;18.23;56.67;100900.88;4993981;28;20076;-81
2022/06/08 06:25:27;;;;;;;4.10;1.10;;;;;;;18.23;56.37;100916.59;4993505;28;20070;-81
2022/06/08 06:27:56;;;;;;;1.85;0.95;;;;;;;18.20;56.90;100913.09;4986225;28;20099;-81
2022/06/08 06:30:24;;;;;;;2.20;1.00;;;;;;;18.18;56.71;100914.84;4990301;28;20055;-81
2022/06/08 06:32:53;;;;;;;2.95;0.90;;;;;;;18.16;56.70;100911.38;4990192;28;20288;-82
2022/06/08 06:35:25;;;;;;;4.20;1.30;;;;;;;18.13;56.69;100910.47;4983883;28;20508;-81
2022/06/08 06:37:54;;;;;;;1.75;0.85;;;;;;;18.10;55.48;100913.09;4981180;28;20053;-81
2022/06/08 06:40:23;;;;;;;1.90;1.00;;;;;;;18.09;55.89;100909.59;4995263;28;20067;-81
2022/06/08 06:42:53;;;;;;;2.92;1.13;;;;;;;18.05;56.36;100909.59;5009004;28;20053;-82
2022/06/08 06:45:22;;;;;;;4.38;1.10;;;;;;;18.02;56.36;100917.44;4995446;28;20069;-81
2022/06/08 06:47:50;;;;;;;1.95;0.90;;;;;;;18.00;56.24;100915.72;4979497;28;20050;-81
2022/06/08 06:50:19;;;;;;;4.20;1.15;;;;;;;18.01;56.55;100927.06;4996783;28;20097;-82
2022/06/08 06:52:48;;;;;;;1.75;0.90;;;;;;;17.99;56.00;100929.66;4984941;28;20049;-82
2022/06/08 06:55:22;;;;;;;2.15;0.90;;;;;;;17.96;56.39;100931.41;4993431;28;20078;-82
2022/06/08 06:57:54;;;;;;;2.33;0.85;;;;;;;17.95;56.45;100932.28;4979821;28;20091;-82
2022/06/08 07:00:23;;;;;;;2.40;0.90;;;;;;;17.93;56.41;100934.88;4991430;28;20050;-82
2022/06/08 07:02:52;;;;;;;1.75;0.95;;;;;;;17.89;56.65;100940.09;4995564;28;20041;-82
2022/06/08 07:05:23;;;;;;;3.20;1.10;;;;;;;17.82;58.54;100938.34;5007985;28;20484;-82
2022/06/08 07:07:52;;;;;;;2.03;1.00;;;;;;;17.72;59.28;100943.50;4980301;28;20050;-82
2022/06/08 07:10:20;;;;;;;5.85;1.10;;;;;;;17.66;65.82;100940.91;5001850;28;20058;-82
2022/06/08 07:12:50;;;;;;;5.95;1.15;;;;;;;17.49;66.73;100945.19;4999405;28;20038;-82
2022/06/08 07:15:23;;;;;;;2.50;1.00;;;;;;;17.32;62.52;100935.53;4989597;28;20038;-81
2022/06/08 07:17:52;;;;;;;4.07;1.17;;;;;;;17.21;62.44;100931.13;5000074;28;20501;-83
2022/06/08 07:20:22;;;;;;;2.22;0.95;;;;;;;17.09;61.29;100932.78;4985503;28;20050;-83
2022/06/08 07:22:51;;;;;;;1.42;0.90;;;;;;;17.01;63.19;100933.59;4989560;28;20054;-83
2022/06/08 07:25:20;;;;;;;2.05;1.10;;;;;;;16.93;63.60;100937.06;4993032;28;20045;-84
2022/06/08 07:27:49;;;;;;;1.77;0.75;;;;;;;16.82;63.48;100933.50;4991797;28;20082;-83
2022/06/08 07:30:20;;;;;;;1.73;0.98;;;;;;;16.74;63.12;100932.53;4998004;28;20038;-84
2022/06/08 07:32:48;;;;;;;3.63;0.90;;;;;;;16.72;63.63;100926.41;4984126;28;20057;-84
2022/06/08 07:35:17;;;;;;;4.70;1.15;;;;;;;16.74;63.38;100935.13;5003776;28;20049;-83
2022/06/08 07:37:46;;;;;;;1.95;0.80;;;;;;;16.72;63.22;100929.03;5002529;28;20056;-83
2022/06/08 07:40:15;;;;;;;1.98;0.80;;;;;;;16.70;62.34;100933.38;5001277;28;20073;-83
2022/06/08 07:42:43;;;;;;;1.50;1.00;;;;;;;16.70;62.58;100934.25;4993315;28;20092;-83
2022/06/08 07:45:13;;;;;;;1.90;1.25;;;;;;;16.69;62.91;100927.25;5001399;28;20046;-82
2022/06/08 07:50:25;;;;;;;3.88;1.17;;;;;;;16.77;62.49;100935.19;4997169;28;20057;-82
2022/06/08 07:52:54;;;;;;;3.03;1.02;;;;;;;16.81;63.09;100934.34;4993843;28;20053;-81
2022/06/08 07:55:23;;;;;;;5.07;1.20;;;;;;;16.86;61.86;100939.59;4986632;28;20053;-81
2022/06/08 07:57:53;;;;;;;2.60;1.15;;;;;;;16.85;61.88;100938.72;4999615;28;20737;-82
2022/06/08 08:00:22;;;;;;;6.93;1.15;;;;;;;16.85;62.29;100933.50;4997066;28;20489;-81
2022/06/08 08:02:53;;;;;;;4.40;0.88;;;;;;;16.87;64.07;100937.00;5000184;28;20049;-82
2022/06/08 08:05:22;;;;;;;3.38;0.98;;;;;;;16.88;61.67;100933.53;4986853;28;20080;-82
2022/06/08 08:07:51;;;;;;;2.22;0.82;;;;;;;16.89;61.99;100935.28;5001095;28;20105;-81
2022/06/08 08:10:23;;;;;;;2.47;0.80;;;;;;;16.87;63.31;100931.78;4998167;28;20047;-81
2022/06/08 08:12:55;;;;;;;3.80;1.10;;;;;;;16.85;62.66;100943.97;4995344;28;20050;-82
2022/06/08 08:15:25;;;;;;;1.73;1.23;;;;;;;16.82;62.60;100938.72;4995513;28;20062;-81
2022/06/08 08:17:55;;;;;;;3.08;1.10;;;;;;;16.84;63.15;100941.34;4997760;28;20065;-82
2022/06/08 08:20:26;;;;;;;3.70;1.10;;;;;;;16.78;63.09;100931.69;4994926;28;20065;-82
2022/06/08 08:22:54;;;;;;;1.92;1.15;;;;;;;16.73;64.40;100936.00;4998635;28;20045;-82
2022/06/08 08:25:24;;;;;;;3.50;1.02;;;;;;;16.67;67.50;100925.50;5001951;28;20493;-81
2022/06/08 08:27:53;;;;;;;5.82;1.05;;;;;;;16.54;69.10;100935.00;5000366;28;20730;-82
2022/06/08 08:30:24;;;;;;;3.17;1.23;;;;;;;16.41;65.94;100930.53;5002641;28;20058;-82
2022/06/08 08:32:54;;;;;;;3.10;1.05;;;;;;;16.38;64.82;100941.84;4994483;28;20054;-83
2022/06/08 08:35:24;;;;;;;3.00;1.33;;;;;;;16.31;64.61;100934.81;4985152;28;20046;-83
2022/06/08 08:38:00;;;;;;;2.40;1.10;;;;;;;16.24;64.93;100938.22;4986447;28;20043;-84
2022/06/08 08:40:39;;;;;;;2.40;1.20;;;;;;;16.20;64.50;100929.50;4990353;28;20098;-83
2022/06/08 08:43:09;;;;;;;2.85;1.00;;;;;;;16.13;64.92;100928.56;5007975;28;20050;-83
2022/06/08 08:45:52;;;;;;;1.05;0.80;;;;;;;16.10;64.72;100936.38;5005277;28;20064;-84
2022/06/08 08:48:28;;;;;;;2.53;1.02;;;;;;;16.06;65.01;100937.19;5024833;28;20078;-83
2022/06/08 08:51:06;;;;;;;1.17;0.90;;;;;;;16.02;64.59;100945.84;5010028;28;20080;-81
2022/06/08 08:53:47;;;;;;;5.68;0.82;;;;;;;16.02;64.29;100943.22;5008993;28;20476;-84
2022/06/08 08:56:18;;;;;;;1.17;0.60;;;;;;;16.00;63.88;100950.16;5006009;28;20049;-83
2022/06/08 08:58:47;;;;;;;1.35;0.60;;;;;;;16.01;64.08;100951.03;4991250;28;20050;-81
2022/06/08 09:01:20;;;;;;;1.35;0.70;;;;;;;15.97;63.88;100947.53;4992768;28;20147;-82
2022/06/08 09:03:57;;;;;;;1.38;0.85;;;;;;;15.99;64.12;100956.25;4992916;28;20042;-84
2022/06/08 09:06:29;;;;;;;2.55;0.75;;;;;;;15.98;64.06;100956.22;4984660;28;20227;-83
2022/06/08 09:09:00;;;;;;;1.35;0.93;;;;;;;15.98;63.70;100956.22;4990550;28;20089;-83
2022/06/08 09:11:32;;;;;;;1.13;0.60;;;;;;;15.98;63.20;100951.88;4977799;28;20047;-85
2022/06/08 09:14:08;;;;;;;1.65;0.70;;;;;;;15.96;63.12;100953.59;4980211;28;20061;-85
2022/06/08 09:16:39;;;;;;;2.20;0.70;;;;;;;15.94;63.37;100960.53;4987806;28;20058;-86
2022/06/08 09:19:30;;;;;;;0.60;0.45;;;;;;;15.94;63.72;100957.94;4985572;28;20052;-87
2022/06/08 09:22:21;;;;;;;5.18;0.93;;;;;;;15.90;63.77;100956.16;4991874;28;20485;-83
2022/06/08 09:24:52;;;;;;;1.77;0.60;;;;;;;15.90;63.35;100969.22;4993011;28;20050;-85
2022/06/08 09:27:24;;;;;;;1.40;0.82;;;;;;;15.89;63.71;100965.69;5010051;28;20050;-84
2022/06/08 09:29:54;;;;;;;;;;;;;;;15.90;62.87;100964.88;5008707;28;20074;-84
2022/06/08 09:32:34;;;;;;;2.92;0.88;;;;;;;15.90;63.07;100966.59;5000005;28;19953;-85
2022/06/08 09:35:16;;;;;;;1.67;0.60;;;;;;;15.93;63.42;100974.44;4991976;28;20050;-83
2022/06/08 09:37:46;;;;;;;0.80;0.63;;;;;;;15.93;63.30;100964.00;4997751;28;20061;-83
2022/06/08 09:40:36;;;;;;;3.33;0.75;;;;;;;15.96;63.14;100976.22;5003650;28;20046;-82
2022/06/08 09:43:27;;;;;;;1.30;0.60;;;;;;;16.00;67.46;100976.28;4995974;28;20046;-82
2022/06/08 09:45:59;;;;;;;0.50;0.50;;;;;;;16.05;67.62;100984.16;4983683;28;20038;-82
2022/06/08 09:52:01;;;;;;;2.00;0.73;;;;;;;15.99;70.01;100979.75;4996749;28;20503;-81
2022/06/08 09:54:41;;;;;;;1.27;0.70;;;;;;;15.94;71.62;100983.16;4987283;28;20050;-81
2022/06/08 09:57:31;;;;;;;1.75;0.68;;;;;;;15.93;69.70;100982.28;4991538;28;20058;-81
2022/06/08 10:00:22;;;;;;;1.23;0.73;;;;;;;15.92;69.96;100993.59;4983843;28;20046;-81
2022/06/08 10:03:11;;;;;;;4.55;0.60;;;;;;;15.94;69.58;100998.81;5003203;28;20038;-82
2022/06/08 10:05:48;;;;;;;2.58;0.95;;;;;;;15.96;70.14;101003.19;4981689;28;20049;-81
2022/06/08 10:08:22;;;;;;;1.33;0.70;;;;;;;15.98;69.26;101004.09;4977687;28;20115;-81
2022/06/08 10:10:58;;;;;;;1.23;0.60;;;;;;;16.02;69.81;101007.63;4990435;28;20128;-82
2022/06/08 10:13:35;;;;;;;1.55;0.68;;;;;;;16.03;68.33;101011.97;4995514;28;20488;-81
2022/06/08 10:16:11;;;;;;;2.05;0.73;;;;;;;16.04;67.36;101009.38;4977386;28;20059;-81
2022/06/08 10:18:45;;;;;;;2.97;0.63;;;;;;;16.06;67.19;101009.41;4983659;28;20047;-82
2022/06/08 10:21:18;;;;;;;2.38;0.75;;;;;;;16.06;66.92;101015.50;4983795;28;20694;-81
2022/06/08 10:23:57;;;;;;;0.80;0.60;;;;;;;16.05;66.88;101013.72;4981830;28;20382;-81
2022/06/08 10:26:29;;;;;;;1.52;0.75;;;;;;;16.05;66.49;101015.47;4980479;28;20053;-82
2022/06/08 10:29:00;;;;;;;;;;;;;;;16.06;66.11;101007.66;4983168;28;20507;-81
2022/06/08 10:31:35;;;;;;;1.52;0.63;;;;;;;16.07;70.25;101005.94;4982970;28;20363;-82
2022/06/08 10:34:10;;;;;;;1.05;0.60;;;;;;;16.07;68.68;101011.16;5008556;28;20046;-81
2022/06/08 10:36:40;;;;;;;2.13;0.60;;;;;;;16.05;67.40;101018.06;4995861;28;20050;-81
2022/06/08 10:39:13;;;;;;;1.13;0.70;;;;;;;16.05;66.60;101016.34;5006409;28;20145;-81
2022/06/08 10:44:49;;;;;;;1.75;0.60;;;;;;;15.96;67.53;101016.22;4999150;28;20089;-81
2022/06/08 10:47:28;;;;;;;1.38;0.82;;;;;;;15.90;66.63;101013.56;4995606;28;20053;-82
2022/06/08 10:50:16;;;;;;;2.25;0.80;;;;;;;15.90;70.44;101010.97;4988210;28;20413;-81
2022/06/08 10:52:47;;;;;;;1.05;0.57;;;;;;;15.88;71.64;101008.31;4991236;28;20389;-82
2022/06/08 10:55:45;;;;;;;6.28;0.80;;;;;;;15.88;69.92;101012.69;5001166;28;20042;-82
2022/06/08 10:58:15;;;;;;;3.33;0.68;;;;;;;15.89;70.55;101009.19;4946446;28;20520;-82
2022/06/08 11:01:05;;;;;;;1.42;0.95;;;;;;;15.89;67.58;101009.19;4990358;28;20054;-82
2022/06/08 11:03:56;;;;;;;0.95;0.60;;;;;;;15.88;69.96;101012.69;4974633;28;20051;-82
2022/06/08 11:07:04;;;;;;;3.50;0.80;;;;;;;15.81;73.02;101000.41;4994930;28;20046;-83
2022/06/08 11:09:54;;;;;;;2.13;0.63;;;;;;;15.87;75.29;101003.06;4985805;28;20054;-82
2022/06/08 11:12:52;;;;;;;4.50;0.80;;;;;;;15.83;70.93;101012.63;4982585;28;20101;-82
2022/06/08 11:15:39;;;;;;;2.85;0.60;;;;;;;15.81;69.20;101019.56;4989095;28;20054;-83
2022/06/08 11:18:17;;;;;;;4.10;1.33;;;;;;;15.79;69.22;101013.44;4991294;28;20050;-82
2022/06/08 11:20:50;;;;;;;2.72;0.70;;;;;;;15.81;69.64;101016.06;4989703;28;20050;-82
2022/06/08 11:23:25;;;;;;;3.25;0.73;;;;;;;15.80;68.50;101019.53;4984136;28;20483;-82
2022/06/08 11:26:00;;;;;;;2.85;0.82;;;;;;;15.77;68.32;101020.38;4982834;28;20473;-83
2022/06/08 11:28:34;;;;;;;1.58;0.77;;;;;;;15.68;67.51;101009.78;5009402;28;20050;-82
2022/06/08 11:31:05;;;;;;;1.25;0.80;;;;;;;15.75;66.75;101016.00;4992827;28;20074;-83
2022/06/08 11:34:19;;;;;;;2.55;0.98;;;;;;;15.76;67.18;101017.72;4997117;28;20042;-83
2022/06/08 11:37:13;;;;;;;2.50;0.85;;;;;;;15.78;67.33;101011.69;4982134;28;20046;-82
2022/06/08 11:39:49;;;;;;;2.47;1.00;;;;;;;15.77;66.50;101009.94;4976114;28;20050;-81
2022/06/08 11:42:24;;;;;;;2.20;0.85;;;;;;;15.77;68.08;101016.88;4974633;28;20061;-82
2022/06/08 11:45:21;;;;;;;4.90;0.80;;;;;;;15.74;68.00;101006.44;4984594;28;20066;-81
2022/06/08 11:47:57;;;;;;;1.95;1.40;;;;;;;15.70;67.16;101011.59;4982026;28;20109;-82
2022/06/08 11:50:30;;;;;;;3.25;1.13;;;;;;;15.73;66.90;101010.75;4983848;28;20046;-82
2022/06/08 11:53:01;;;;;;;2.08;0.95;;;;;;;15.74;68.48;101003.81;4985778;28;20050;-82
2022/06/08 11:55:31;;;;;;;2.05;0.98;;;;;;;15.75;69.50;101010.78;4990375;28;20050;-82
2022/06/08 11:58:17;;;;;;;3.80;0.90;;;;;;;15.75;69.67;101001.19;4986776;28;20057;-82
2022/06/08 12:00:57;;;;;;;1.85;0.95;;;;;;;15.77;67.80;101001.22;4989008;28;20046;-84
2022/06/08 12:03:30;;;;;;;3.35;1.00;;;;;;;15.76;66.41;100994.25;4983713;28;20051;-83
2022/06/08 12:06:08;;;;;;;2.03;1.20;;;;;;;15.75;66.95;100996.00;4980417;28;20489;-83
2022/06/08 12:08:40;;;;;;;2.25;1.08;;;;;;;15.77;67.46;100998.63;4991768;28;20107;-83